Time;durP1;ratioP1;P1;durP2;ratioP2;P2;SDS_P1;SDS_P2;PMS_P1;PMS_P2;Temp;Humidity;BMP_temperature;BMP_pressure;BME280_temperature;BME280_humidity;BME280_pressure;Samples;Min_cycle;Max_cycle;Signal;HPM_P1;HPM_P2
2022/07/01 00:01:13;;;;;;;17.00;8.00;;;;;;;23.11;67.86;99830.96;106143;1271;23203;-65
2022/07/01 00:03:48;;;;;;;18.70;8.60;;;;;;;23.07;68.00;99832.04;106340;1271;25490;-65
2022/07/01 00:06:18;;;;;;;18.50;9.30;;;;;;;23.03;67.97;99832.78;106159;1271;22546;-65
2022/07/01 00:08:47;;;;;;;19.20;9.10;;;;;;;22.97;68.02;99822.02;106247;1271;26867;-65
2022/07/01 00:11:16;;;;;;;17.10;8.40;;;;;;;22.93;68.14;99815.95;106233;1269;25551;-65
2022/07/01 00:13:45;;;;;;;17.10;8.20;;;;;;;22.88;68.11;99818.16;106334;1271;26581;-64
2022/07/01 00:16:14;;;;;;;15.30;7.80;;;;;;;22.79;68.26;99817.39;106282;1271;25423;-65
2022/07/01 00:18:43;;;;;;;13.90;7.90;;;;;;;22.71;68.39;99821.60;106391;1271;24223;-65
2022/07/01 00:21:12;;;;;;;15.50;7.60;;;;;;;22.63;68.47;99825.41;106358;1271;26517;-64
2022/07/01 00:23:42;;;;;;;17.80;8.00;;;;;;;22.58;68.61;99821.53;106228;1271;25574;-64
2022/07/01 00:26:10;;;;;;;16.00;8.20;;;;;;;22.51;68.59;99818.27;106118;1271;24715;-64
2022/07/01 00:28:39;;;;;;;14.40;7.70;;;;;;;22.45;68.76;99810.98;106357;1271;22522;-64
2022/07/01 00:31:08;;;;;;;16.60;8.20;;;;;;;22.40;68.96;99810.24;106300;1271;24258;-65
2022/07/01 00:33:37;;;;;;;15.00;7.10;;;;;;;22.36;69.10;99804.50;106392;1271;22580;-65
2022/07/01 00:36:06;;;;;;;14.20;8.00;;;;;;;22.31;69.18;99801.48;106325;1270;25405;-65
2022/07/01 00:38:37;;;;;;;15.70;8.10;;;;;;;22.27;69.38;99800.88;106298;1271;24380;-64
2022/07/01 00:41:06;;;;;;;15.10;7.60;;;;;;;22.21;69.45;99792.24;106383;1271;24708;-65
2022/07/01 00:43:38;;;;;;;16.60;8.60;;;;;;;22.17;69.72;99789.60;106217;1271;24553;-64
2022/07/01 00:46:07;;;;;;;16.00;7.90;;;;;;;22.15;69.63;99790.50;106061;1271;22681;-65
2022/07/01 00:48:36;;;;;;;17.50;9.00;;;;;;;22.12;69.79;99794.71;106112;1271;24844;-64
2022/07/01 00:51:05;;;;;;;14.60;8.40;;;;;;;22.09;70.03;99798.36;106130;1271;22549;-65
2022/07/01 00:53:34;;;;;;;17.40;9.50;;;;;;;22.05;70.06;99796.55;106090;1271;24230;-65
2022/07/01 00:56:05;;;;;;;17.40;9.20;;;;;;;21.98;70.30;99792.22;106140;1271;25352;-65
2022/07/01 00:58:34;;;;;;;17.70;7.90;;;;;;;21.92;70.49;99792.19;106030;1271;24272;-65
2022/07/01 01:01:03;;;;;;;17.60;8.00;;;;;;;21.87;70.52;99795.27;106101;1271;22580;-65
2022/07/01 01:03:32;;;;;;;17.00;8.20;;;;;;;21.80;70.72;99796.78;106305;1268;22857;-65
2022/07/01 01:06:05;;;;;;;15.50;8.70;;;;;;;21.77;70.94;99803.14;106128;1268;22785;-65
2022/07/01 01:08:34;;;;;;;18.60;9.40;;;;;;;21.72;71.07;99811.55;106117;1271;25315;-64
2022/07/01 01:11:06;;;;;;;19.10;9.30;;;;;;;21.69;71.27;99813.94;106020;1271;22595;-64
2022/07/01 01:13:35;;;;;;;18.50;9.00;;;;;;;21.67;71.28;99817.69;106162;1270;25367;-65
2022/07/01 01:16:04;;;;;;;22.20;10.30;;;;;;;21.63;71.47;99822.15;106167;1271;26686;-65
2022/07/01 01:18:33;;;;;;;20.70;9.10;;;;;;;21.58;71.65;99828.20;106125;1271;22627;-65
2022/07/01 01:21:02;;;;;;;19.80;9.20;;;;;;;21.53;71.79;99826.08;106044;1271;22541;-65
2022/07/01 01:23:31;;;;;;;18.70;9.30;;;;;;;21.50;71.91;99825.61;106115;1268;22535;-64
2022/07/01 01:26:03;;;;;;;19.50;10.20;;;;;;;21.45;71.93;99818.40;106187;1271;25277;-65
2022/07/01 01:28:32;;;;;;;17.50;9.00;;;;;;;21.40;72.07;99816.36;106078;1271;27307;-64
2022/07/01 01:31:00;;;;;;;17.40;9.30;;;;;;;21.35;72.20;99818.42;106267;1269;24378;-65
2022/07/01 01:33:29;;;;;;;17.90;9.60;;;;;;;21.31;72.28;99813.08;106212;1271;24293;-65
2022/07/01 01:35:59;;;;;;;18.80;9.40;;;;;;;21.28;72.43;99811.29;106224;1268;22559;-65
2022/07/01 01:38:27;;;;;;;;;;;;;;;21.25;72.38;99809.38;106066;1270;22545;-65
2022/07/01 01:40:55;;;;;;;18.00;8.80;;;;;;;21.19;72.65;99806.23;106027;1268;22538;-65
2022/07/01 01:43:26;;;;;;;16.70;8.80;;;;;;;21.14;72.71;99808.36;106182;1271;22572;-65
2022/07/01 01:45:55;;;;;;;19.00;9.90;;;;;;;21.12;72.88;99806.54;106081;1271;22537;-65
2022/07/01 01:48:24;;;;;;;20.80;9.90;;;;;;;21.08;72.83;99806.19;106331;1271;27287;-64
2022/07/01 01:50:53;;;;;;;17.10;9.80;;;;;;;21.03;73.17;99811.92;106142;1271;25339;-64
2022/07/01 01:53:22;;;;;;;18.90;9.80;;;;;;;21.00;73.25;99808.93;106253;1271;23290;-64
2022/07/01 01:55:53;;;;;;;21.10;9.90;;;;;;;20.99;73.53;99809.02;106014;1268;24412;-64
2022/07/01 01:58:22;;;;;;;17.60;9.60;;;;;;;20.98;73.50;99809.46;106063;1268;25338;-64
2022/07/01 02:00:51;;;;;;;17.00;10.60;;;;;;;21.00;73.63;99801.67;106139;1271;22670;-64
2022/07/01 02:03:19;;;;;;;20.30;9.50;;;;;;;21.00;73.68;99795.55;105972;1271;24498;-64
2022/07/01 02:05:50;;;;;;;16.50;10.10;;;;;;;20.99;73.86;99791.41;105996;1271;22483;-64
2022/07/01 02:08:18;;;;;;;18.10;9.40;;;;;;;21.00;73.78;99795.02;106282;1271;22603;-64
2022/07/01 02:10:48;;;;;;;19.10;9.70;;;;;;;21.01;73.76;99792.96;106037;1271;22553;-64
2022/07/01 02:13:17;;;;;;;20.80;10.20;;;;;;;21.02;73.79;99799.60;106051;1271;24589;-65
2022/07/01 02:15:45;;;;;;;20.90;9.90;;;;;;;20.98;73.90;99794.59;105982;1271;26137;-65
2022/07/01 02:18:14;;;;;;;22.50;9.70;;;;;;;20.94;73.83;99788.90;106039;1271;22549;-64
2022/07/01 02:20:43;;;;;;;19.50;9.10;;;;;;;20.90;73.98;99790.66;105985;1270;23917;-64
2022/07/01 02:23:12;;;;;;;19.00;9.30;;;;;;;20.88;74.07;99791.15;106030;1271;22557;-64
2022/07/01 02:25:42;;;;;;;17.00;9.40;;;;;;;20.82;74.22;99789.88;106002;1268;24316;-63
2022/07/01 02:28:11;;;;;;;21.40;9.80;;;;;;;20.79;74.24;99785.78;106146;1271;22535;-64
2022/07/01 02:30:42;;;;;;;17.30;9.20;;;;;;;20.75;74.32;99785.67;106242;1271;25537;-65
2022/07/01 02:33:11;;;;;;;17.50;8.50;;;;;;;20.72;74.42;99791.01;106033;1271;22550;-64
2022/07/01 02:35:41;;;;;;;15.80;8.40;;;;;;;20.69;74.46;99787.16;106049;1271;24233;-63
2022/07/01 02:38:10;;;;;;;19.80;9.20;;;;;;;20.69;74.28;99781.04;106278;1271;22553;-64
2022/07/01 02:40:39;;;;;;;21.40;9.20;;;;;;;20.68;74.50;99781.94;105992;1271;22479;-64
2022/07/01 02:43:09;;;;;;;19.20;8.80;;;;;;;20.66;74.55;99783.59;105861;1271;22626;-64
2022/07/01 02:45:38;;;;;;;18.50;8.70;;;;;;;20.64;74.61;99783.71;106076;1271;24372;-63
2022/07/01 02:48:08;;;;;;;15.00;8.20;;;;;;;20.60;74.70;99789.84;106028;1271;26484;-64
2022/07/01 02:50:37;;;;;;;18.60;9.00;;;;;;;20.57;74.67;99791.08;106136;1269;23975;-63
2022/07/01 02:53:06;;;;;;;17.80;9.10;;;;;;;20.54;74.69;99789.23;106110;1271;24263;-64
2022/07/01 02:55:35;;;;;;;21.10;9.20;;;;;;;20.52;74.77;99790.70;106009;1271;22799;-63
2022/07/01 02:58:04;;;;;;;17.60;8.40;;;;;;;20.50;74.80;99786.80;106133;1271;22687;-67
2022/07/01 03:00:33;;;;;;;18.50;7.50;;;;;;;20.48;74.80;99779.16;106163;1268;22519;-64
2022/07/01 03:03:03;;;;;;;16.00;8.50;;;;;;;20.47;74.49;99784.52;106092;1268;22735;-63
2022/07/01 03:05:33;;;;;;;19.10;7.40;;;;;;;20.46;74.70;99791.02;106045;1271;22590;-63
2022/07/01 03:08:00;;;;;;;;;;;;;;;20.46;74.63;99790.11;102284;1271;5442368;-67
2022/07/01 03:10:31;;;;;;;17.70;7.40;;;;;;;20.44;74.63;99802.94;106232;1269;26927;-64
2022/07/01 03:13:01;;;;;;;15.70;7.40;;;;;;;20.44;74.82;99804.55;105961;1271;25541;-64
2022/07/01 03:15:30;;;;;;;20.40;7.00;;;;;;;20.43;74.76;99808.34;106034;1271;22541;-63
2022/07/01 03:17:59;;;;;;;14.40;6.10;;;;;;;20.44;74.95;99811.06;106214;1271;25409;-64
2022/07/01 03:20:28;;;;;;;17.00;6.80;;;;;;;20.45;75.00;99813.12;105992;1271;22580;-63
2022/07/01 03:22:57;;;;;;;15.30;7.20;;;;;;;20.46;75.12;99813.46;106010;1271;24227;-63
2022/07/01 03:25:26;;;;;;;14.80;7.30;;;;;;;20.46;75.22;99816.39;105948;1271;24427;-64
2022/07/01 03:27:54;;;;;;;13.40;6.90;;;;;;;20.48;75.20;99810.98;106053;1271;24231;-64
2022/07/01 03:30:23;;;;;;;14.80;6.00;;;;;;;20.51;75.15;99805.21;106144;1271;26494;-63
2022/07/01 03:32:52;;;;;;;17.00;7.00;;;;;;;20.54;75.03;99805.69;106253;1270;22542;-64
2022/07/01 03:35:36;;;;;;;17.30;6.50;;;;;;;20.57;75.09;99806.13;106000;1271;25553;-63
2022/07/01 03:38:05;;;;;;;16.50;6.60;;;;;;;20.61;75.00;99805.51;106187;1268;25537;-64
2022/07/01 03:40:35;;;;;;;14.60;6.90;;;;;;;20.64;74.68;99807.52;106025;1269;25285;-64
2022/07/01 03:43:06;;;;;;;15.10;6.20;;;;;;;20.67;74.59;99803.83;106142;1271;24242;-63
2022/07/01 03:45:35;;;;;;;14.00;5.10;;;;;;;20.69;74.39;99803.23;106082;1271;25838;-63
2022/07/01 03:48:05;;;;;;;15.00;6.20;;;;;;;20.71;74.24;99801.13;106217;1268;22729;-63
2022/07/01 03:50:34;;;;;;;15.80;6.30;;;;;;;20.75;74.20;99798.95;106120;1268;27676;-63
2022/07/01 03:55:49;;;;;;;13.20;5.60;;;;;;;20.82;74.23;99803.38;105894;1271;25267;-64
2022/07/01 03:58:19;;;;;;;16.30;7.20;;;;;;;20.85;74.17;99804.18;106037;1271;22551;-63
2022/07/01 04:00:47;;;;;;;17.50;6.20;;;;;;;20.89;74.03;99805.29;106002;1270;22618;-63
2022/07/01 04:03:16;;;;;;;13.90;5.90;;;;;;;20.92;74.01;99804.92;106008;1270;24296;-63
2022/07/01 04:05:45;;;;;;;18.40;7.10;;;;;;;20.98;73.98;99808.13;105971;1270;22543;-63
2022/07/01 04:08:15;;;;;;;16.90;6.00;;;;;;;21.02;73.91;99809.30;106068;1269;24291;-63
2022/07/01 04:10:44;;;;;;;16.30;6.30;;;;;;;21.06;73.96;99809.66;106039;1271;22569;-63
2022/07/01 04:13:13;;;;;;;14.20;6.70;;;;;;;21.11;73.80;99811.56;106007;1271;24264;-64
2022/07/01 04:15:42;;;;;;;11.50;6.00;;;;;;;21.14;73.77;99810.90;106066;1271;25603;-63
2022/07/01 04:18:11;;;;;;;15.00;6.40;;;;;;;21.19;73.84;99810.62;106009;1270;22637;-63
2022/07/01 04:20:40;;;;;;;14.10;6.20;;;;;;;21.23;74.03;99814.45;106015;1271;22835;-64
2022/07/01 04:23:10;;;;;;;18.00;6.30;;;;;;;21.27;73.97;99814.15;106086;1268;25268;-63
2022/07/01 04:25:38;;;;;;;;;;;;;;;21.31;73.92;99819.62;106150;1268;22540;-63
2022/07/01 04:28:08;;;;;;;14.30;6.10;;;;;;;21.37;73.84;99823.47;106120;1271;22543;-66
2022/07/01 04:30:37;;;;;;;16.70;7.60;;;;;;;21.44;73.85;99825.55;106001;1268;24235;-66
2022/07/01 04:33:06;;;;;;;16.50;7.00;;;;;;;21.51;73.89;99826.45;106062;1268;25369;-65
2022/07/01 04:35:35;;;;;;;19.10;8.40;;;;;;;21.59;74.06;99824.92;106101;1268;25660;-65
2022/07/01 04:38:04;;;;;;;18.00;8.50;;;;;;;21.66;74.22;99823.14;106080;1268;25410;-63
2022/07/01 04:40:35;;;;;;;15.40;7.10;;;;;;;21.72;74.19;99824.43;106028;1269;23350;-63
2022/07/01 04:43:04;;;;;;;17.80;9.00;;;;;;;21.82;74.13;99830.23;106010;1270;22586;-64
2022/07/01 04:45:33;;;;;;;16.80;7.20;;;;;;;21.91;74.15;99830.62;106018;1268;22535;-64
2022/07/01 04:48:02;;;;;;;20.60;9.10;;;;;;;21.99;74.29;99833.73;106235;1269;25775;-64
2022/07/01 04:50:32;;;;;;;17.90;8.50;;;;;;;22.09;74.04;99830.92;106160;1270;22563;-63
2022/07/01 04:53:01;;;;;;;15.70;7.70;;;;;;;22.18;73.93;99829.97;105943;1268;22674;-64
2022/07/01 04:55:29;;;;;;;22.50;8.60;;;;;;;22.27;74.07;99827.67;106026;1271;24220;-63
2022/07/01 04:57:58;;;;;;;19.30;8.90;;;;;;;22.38;73.82;99823.53;106758;1270;22576;-64
2022/07/01 05:00:28;;;;;;;17.90;8.00;;;;;;;22.51;73.80;99823.59;106503;1268;25324;-64
2022/07/01 05:02:58;;;;;;;17.20;7.90;;;;;;;22.61;73.51;99821.12;105914;1270;22529;-64
2022/07/01 05:05:28;;;;;;;22.50;8.90;;;;;;;22.71;73.81;99822.16;106194;1270;22542;-64
2022/07/01 05:07:55;;;;;;;;;;;;;;;22.81;73.66;99821.70;106002;1268;26654;-65
2022/07/01 05:10:24;;;;;;;22.40;9.60;;;;;;;22.91;73.50;99817.58;106909;1259;22572;-56
2022/07/01 05:12:53;;;;;;;20.10;10.00;;;;;;;22.98;73.31;99811.73;106086;1268;22722;-55
2022/07/01 05:15:22;;;;;;;21.60;9.60;;;;;;;23.05;73.15;99815.20;106592;1268;22959;-53
2022/07/01 05:23:25;;;;;;;21.80;9.80;;;;;;;23.25;72.84;99813.84;106066;1268;24219;-55
2022/07/01 05:25:53;;;;;;;17.00;8.90;;;;;;;23.33;72.72;99812.79;109908;1267;22714;-56
2022/07/01 05:28:23;;;;;;;17.90;9.30;;;;;;;23.41;72.58;99808.66;106417;1268;22545;-56
2022/07/01 05:30:52;;;;;;;17.40;8.60;;;;;;;23.47;72.51;99805.36;106297;1268;23969;-54
2022/07/01 05:33:21;;;;;;;22.90;10.60;;;;;;;23.55;72.61;99806.14;106098;1269;24471;-55
2022/07/01 05:35:50;;;;;;;19.70;10.70;;;;;;;23.64;72.38;99812.28;106024;1268;24271;-55
2022/07/01 05:38:19;;;;;;;22.30;10.40;;;;;;;23.72;72.00;99812.15;106228;1268;22565;-55
2022/07/01 05:40:48;;;;;;;19.40;10.50;;;;;;;23.79;72.13;99819.91;106101;1271;22556;-55
2022/07/01 05:43:16;;;;;;;22.90;11.10;;;;;;;23.89;72.25;99826.30;106206;1268;22937;-56
2022/07/01 05:45:46;;;;;;;21.70;10.80;;;;;;;23.96;71.63;99838.17;106079;1271;24602;-55
2022/07/01 05:48:15;;;;;;;23.40;11.40;;;;;;;24.03;71.65;99842.52;105987;1268;23714;-55
2022/07/01 05:50:44;;;;;;;21.30;10.70;;;;;;;24.12;71.45;99842.39;106056;1268;24941;-56
2022/07/01 05:53:13;;;;;;;22.80;11.20;;;;;;;24.17;70.93;99838.56;106093;1268;25292;-56
2022/07/01 05:55:42;;;;;;;22.00;10.40;;;;;;;24.17;70.90;99840.98;106138;1268;22532;-58
2022/07/01 05:58:12;;;;;;;20.80;11.20;;;;;;;24.19;70.93;99842.17;106225;1268;22582;-55
2022/07/01 06:00:41;;;;;;;;;;;;;;;24.24;70.90;99837.17;106315;1268;25347;-55
2022/07/01 06:03:11;;;;;;;19.30;11.20;;;;;;;24.30;71.01;99835.86;106189;1268;22547;-56
2022/07/01 06:05:40;;;;;;;19.20;10.10;;;;;;;24.38;70.92;99828.94;106038;1268;22551;-55
2022/07/01 06:08:09;;;;;;;20.70;9.20;;;;;;;24.47;70.57;99834.56;105999;1268;25346;-55
2022/07/01 06:10:38;;;;;;;19.70;9.30;;;;;;;24.52;70.14;99827.73;106028;1270;25320;-54
2022/07/01 06:13:08;;;;;;;18.10;9.80;;;;;;;24.57;69.81;99829.40;106134;1268;23972;-55
2022/07/01 06:15:37;;;;;;;21.30;10.20;;;;;;;24.62;69.82;99824.58;106189;1268;24932;-56
2022/07/01 06:18:06;;;;;;;25.50;10.30;;;;;;;24.64;69.65;99821.33;106109;1268;25480;-56
2022/07/01 06:20:34;;;;;;;20.30;10.60;;;;;;;24.70;69.73;99813.84;106247;1268;23729;-53
2022/07/01 06:23:06;;;;;;;19.20;9.00;;;;;;;24.77;70.07;99813.06;106247;1268;24908;-53
2022/07/01 06:25:35;;;;;;;24.70;11.10;;;;;;;24.85;70.01;99814.53;106091;1268;26668;-57
2022/07/01 06:28:05;;;;;;;20.80;9.80;;;;;;;24.92;69.54;99818.25;106189;1268;25244;-56
2022/07/01 06:30:33;;;;;;;;;;;;;;;25.03;69.85;99824.45;106172;1268;25569;-56
2022/07/01 06:33:03;;;;;;;18.40;10.10;;;;;;;25.16;69.78;99828.31;106021;1268;25304;-55
2022/07/01 06:35:32;;;;;;;20.20;9.60;;;;;;;25.28;69.34;99822.60;106031;1268;25525;-55
2022/07/01 06:38:03;;;;;;;19.00;9.20;;;;;;;25.38;69.16;99817.69;106223;1268;23107;-54
2022/07/01 06:40:31;;;;;;;17.30;10.00;;;;;;;25.46;69.04;99807.52;106193;1268;22546;-55
2022/07/01 06:43:00;;;;;;;19.50;10.10;;;;;;;25.53;68.56;99807.05;106295;1268;24411;-56
2022/07/01 06:45:29;;;;;;;20.40;11.10;;;;;;;25.56;68.42;99812.38;106249;1268;22823;-56
2022/07/01 06:47:58;;;;;;;18.90;10.30;;;;;;;25.63;68.44;99816.30;106383;1268;22553;-56
2022/07/01 06:50:27;;;;;;;20.40;10.20;;;;;;;25.68;68.39;99822.85;106224;1268;24216;-56
2022/07/01 06:52:56;;;;;;;17.70;9.30;;;;;;;25.74;68.18;99822.72;106082;1268;23525;-56
2022/07/01 06:55:25;;;;;;;21.20;10.00;;;;;;;25.79;68.19;99822.98;106130;1268;22611;-56
2022/07/01 06:57:54;;;;;;;20.90;10.30;;;;;;;25.85;67.72;99817.59;106425;1268;22615;-57
2022/07/01 07:00:23;;;;;;;20.90;10.30;;;;;;;25.92;67.85;99811.41;106205;1268;22620;-56
2022/07/01 07:02:52;;;;;;;17.90;9.70;;;;;;;25.97;67.66;99809.14;106206;1268;25522;-56
2022/07/01 07:05:21;;;;;;;19.90;9.00;;;;;;;26.06;67.75;99806.30;106415;1269;22551;-56
2022/07/01 07:07:50;;;;;;;19.70;9.50;;;;;;;26.18;67.44;99809.63;106127;1268;25217;-56
2022/07/01 07:10:19;;;;;;;18.30;9.30;;;;;;;26.29;67.17;99804.05;106147;1268;25492;-55
2022/07/01 07:12:49;;;;;;;21.40;11.50;;;;;;;26.40;67.29;99804.04;106133;1268;25397;-56
2022/07/01 07:15:19;;;;;;;20.10;9.80;;;;;;;26.51;66.73;99803.02;106085;1268;22714;-56
2022/07/01 07:17:48;;;;;;;24.30;9.40;;;;;;;26.59;66.82;99805.87;106174;1268;25346;-55
2022/07/01 07:20:17;;;;;;;22.20;9.20;;;;;;;26.70;66.76;99802.83;106205;1268;22534;-55
2022/07/01 07:22:46;;;;;;;18.70;10.20;;;;;;;26.80;66.25;99803.24;106255;1271;24434;-54
2022/07/01 07:25:15;;;;;;;17.60;8.90;;;;;;;26.89;66.18;99799.86;106373;1268;25477;-56
2022/07/01 07:27:46;;;;;;;18.40;9.40;;;;;;;26.98;65.89;99798.80;106276;1271;22560;-56
2022/07/01 07:30:15;;;;;;;17.80;9.10;;;;;;;27.06;65.87;99798.97;106133;1268;22582;-54
2022/07/01 07:32:44;;;;;;;19.60;9.20;;;;;;;27.12;65.18;99797.00;106261;1268;22615;-55
2022/07/01 07:35:12;;;;;;;;;;;;;;;27.09;64.73;99793.88;106590;1268;26608;-56
2022/07/01 07:37:42;;;;;;;19.20;8.10;;;;;;;27.14;65.24;99798.29;106117;1268;25251;-56
2022/07/01 07:40:18;;;;;;;24.20;9.70;;;;;;;27.21;64.83;99799.83;106143;1268;22556;-57
2022/07/01 07:42:47;;;;;;;18.70;9.00;;;;;;;27.28;64.70;99804.79;106080;1268;25597;-57
2022/07/01 07:45:16;;;;;;;17.70;9.10;;;;;;;27.37;64.55;99807.73;106172;1268;22739;-57
2022/07/01 07:47:51;;;;;;;17.60;8.70;;;;;;;27.48;64.44;99816.98;106217;1268;22867;-57
2022/07/01 07:50:23;;;;;;;18.60;9.60;;;;;;;27.59;64.19;99816.92;106259;1268;22761;-58
2022/07/01 07:52:53;;;;;;;17.70;8.80;;;;;;;27.70;64.16;99816.70;106187;1268;24290;-55
2022/07/01 07:55:22;;;;;;;17.90;8.70;;;;;;;27.77;63.51;99816.48;106287;1268;23011;-57
2022/07/01 07:57:51;;;;;;;21.70;8.60;;;;;;;27.83;63.13;99814.45;106386;1268;24150;-54
2022/07/01 08:00:20;;;;;;;18.10;7.40;;;;;;;27.91;63.25;99814.51;106492;1268;22656;-55
2022/07/01 08:02:53;;;;;;;22.70;8.40;;;;;;;27.99;62.71;99815.76;106446;1268;24275;-57
2022/07/01 08:05:22;;;;;;;18.30;7.40;;;;;;;28.04;62.05;99821.11;106372;1268;22562;-55
2022/07/01 08:07:52;;;;;;;15.50;7.00;;;;;;;28.10;62.30;99825.00;106239;1271;23972;-55
2022/07/01 08:10:21;;;;;;;15.40;7.50;;;;;;;28.19;61.55;99826.05;106270;1268;24335;-55
2022/07/01 08:12:50;;;;;;;22.30;8.30;;;;;;;28.25;61.69;99831.90;106407;1268;22547;-59
2022/07/01 08:16:03;;;;;;;18.00;8.40;;;;;;;28.36;61.51;99827.63;106476;1268;25238;-57
2022/07/01 08:18:35;;;;;;;16.30;7.30;;;;;;;28.49;61.08;99823.38;106319;1268;25126;-56
2022/07/01 08:21:05;;;;;;;17.60;6.90;;;;;;;28.57;61.23;99820.67;106296;1268;24593;-57
2022/07/01 08:23:35;;;;;;;18.10;8.40;;;;;;;28.68;61.09;99824.69;106381;1268;25360;-57
2022/07/01 08:26:04;;;;;;;15.90;7.70;;;;;;;28.77;60.56;99817.99;106364;1268;22531;-57
2022/07/01 08:28:33;;;;;;;12.70;7.20;;;;;;;28.83;60.32;99818.23;106558;1268;22623;-55
2022/07/01 08:31:03;;;;;;;16.30;7.90;;;;;;;28.88;60.17;99814.23;106363;1268;22642;-56
2022/07/01 08:33:31;;;;;;;;;;;;;;;28.91;60.06;99808.39;106585;1268;25309;-58
2022/07/01 08:36:01;;;;;;;17.80;7.70;;;;;;;28.92;59.69;99808.80;106650;1268;23930;-54
2022/07/01 08:38:30;;;;;;;15.20;7.90;;;;;;;28.94;59.79;99806.58;106268;1267;24676;-55
2022/07/01 08:41:00;;;;;;;13.90;6.90;;;;;;;28.96;59.69;99806.31;106323;1268;25207;-57
2022/07/01 08:43:31;;;;;;;25.00;8.30;;;;;;;29.03;59.89;99806.61;106813;1268;22539;-57
2022/07/01 08:46:02;;;;;;;16.70;7.00;;;;;;;29.18;59.71;99804.45;106201;1268;22572;-56
2022/07/01 08:48:35;;;;;;;15.70;8.20;;;;;;;29.29;59.49;99807.20;106496;1268;26749;-57
2022/07/01 08:51:06;;;;;;;17.10;8.10;;;;;;;29.35;58.99;99804.30;106390;1268;22535;-55
2022/07/01 08:53:33;;;;;;;;;;;;;;;29.40;58.76;99800.88;106286;1268;22560;-58
2022/07/01 08:58:52;;;;;;;14.10;6.40;;;;;;;29.61;58.74;99799.45;106172;1268;22531;-55
2022/07/01 09:01:22;;;;;;;20.80;8.20;;;;;;;29.75;58.36;99801.24;106162;1268;24163;-59
2022/07/01 09:03:52;;;;;;;20.50;8.00;;;;;;;29.84;57.53;99802.98;106239;1268;25349;-54
2022/07/01 09:06:23;;;;;;;16.70;6.80;;;;;;;29.86;57.15;99804.94;106312;1268;22694;-56
2022/07/01 09:08:52;;;;;;;16.20;7.60;;;;;;;29.89;57.06;99801.83;106188;1268;22546;-59
2022/07/01 09:11:23;;;;;;;17.30;6.50;;;;;;;29.93;56.31;99804.84;106161;1268;22617;-58
2022/07/01 09:14:07;;;;;;;12.90;6.40;;;;;;;29.96;56.17;99804.83;106099;1268;22563;-54
2022/07/01 09:16:42;;;;;;;13.50;6.70;;;;;;;30.03;55.61;99809.46;106091;1268;25589;-54
2022/07/01 09:19:12;;;;;;;16.80;8.20;;;;;;;30.06;55.26;99807.64;106165;1268;22611;-57
2022/07/01 09:21:42;;;;;;;18.10;7.00;;;;;;;30.11;55.42;99798.16;106319;1268;22627;-57
2022/07/01 09:24:27;;;;;;;13.00;6.80;;;;;;;30.29;55.66;99798.11;106173;1268;22604;-59
2022/07/01 09:27:00;;;;;;;15.90;7.30;;;;;;;30.41;54.89;99798.28;106213;1268;25365;-57
2022/07/01 09:29:32;;;;;;;15.90;7.80;;;;;;;30.41;54.67;99793.81;106231;1268;24303;-57
2022/07/01 09:32:02;;;;;;;16.60;7.60;;;;;;;30.42;54.48;99786.98;106380;1268;22611;-57
2022/07/01 09:34:40;;;;;;;15.40;7.30;;;;;;;30.48;54.25;99781.80;106167;1268;22529;-58
2022/07/01 09:37:11;;;;;;;15.80;7.10;;;;;;;30.53;54.22;99779.96;106260;1268;24422;-56
2022/07/01 09:39:48;;;;;;;12.40;7.40;;;;;;;30.61;53.99;99780.86;105965;1268;22577;-57
2022/07/01 09:42:18;;;;;;;14.10;7.30;;;;;;;30.63;53.63;99786.63;105987;1268;24231;-54
2022/07/01 09:44:57;;;;;;;13.50;7.10;;;;;;;30.67;53.63;99783.84;106305;1268;24423;-54
2022/07/01 09:47:27;;;;;;;15.20;6.50;;;;;;;30.70;52.98;99784.83;106154;1268;24303;-56
2022/07/01 09:49:56;;;;;;;13.40;6.30;;;;;;;30.74;52.99;99781.36;105998;1268;22537;-59
2022/07/01 09:52:26;;;;;;;13.40;6.10;;;;;;;30.84;53.16;99780.08;106115;1268;24395;-57
2022/07/01 09:54:55;;;;;;;15.40;6.20;;;;;;;31.02;52.82;99775.35;106224;1268;22582;-58
2022/07/01 09:57:24;;;;;;;16.40;6.70;;;;;;;31.18;52.62;99771.92;106071;1267;24170;-56
2022/07/01 09:59:53;;;;;;;13.70;6.70;;;;;;;31.34;52.58;99768.35;106125;1268;25473;-58
2022/07/01 10:02:23;;;;;;;11.90;6.30;;;;;;;31.51;52.47;99770.52;106027;1268;22531;-57
2022/07/01 10:04:53;;;;;;;;;;;;;;;31.69;51.86;99771.36;106242;1268;22540;-57
2022/07/01 10:07:37;;;;;;;14.60;6.80;;;;;;;31.84;51.63;99772.02;106207;1268;25367;-56
2022/07/01 10:10:30;;;;;;;13.30;6.50;;;;;;;31.94;50.49;99769.81;106069;1268;23300;-57
2022/07/01 10:13:02;;;;;;;11.90;5.90;;;;;;;32.05;50.68;99770.39;106087;1268;22782;-57
2022/07/01 10:15:33;;;;;;;17.30;5.60;;;;;;;32.18;50.40;99770.50;106206;1270;24220;-58
2022/07/01 10:18:06;;;;;;;15.30;5.80;;;;;;;32.28;49.91;99760.09;106260;1268;24307;-56
2022/07/01 10:20:41;;;;;;;12.90;5.70;;;;;;;32.27;48.80;99758.72;106698;1268;22533;-57
2022/07/01 10:23:12;;;;;;;12.20;5.90;;;;;;;32.15;48.33;99752.46;106374;1268;23120;-57
2022/07/01 10:25:45;;;;;;;13.30;5.60;;;;;;;32.06;47.97;99753.11;106452;1268;25403;-60
2022/07/01 10:28:26;;;;;;;12.80;5.60;;;;;;;32.04;48.45;99754.05;106375;1268;23933;-57
2022/07/01 10:31:03;;;;;;;14.40;7.10;;;;;;;32.16;48.70;99741.93;106288;1268;22741;-56
2022/07/01 10:33:49;;;;;;;13.80;6.20;;;;;;;32.24;48.17;99739.38;106295;1268;22528;-57
2022/07/01 10:36:33;;;;;;;13.40;5.40;;;;;;;32.27;47.92;99735.89;106608;1268;24160;-58
2022/07/01 10:39:29;;;;;;;12.50;6.00;;;;;;;32.36;47.41;99729.27;106161;1268;22566;-57
2022/07/01 10:45:17;;;;;;;13.40;5.00;;;;;;;32.55;47.64;99721.88;106294;1268;22540;-56
2022/07/01 10:47:46;;;;;;;17.70;5.30;;;;;;;32.69;47.44;99718.23;106569;1267;22553;-57
2022/07/01 10:50:18;;;;;;;14.80;5.30;;;;;;;32.81;46.98;99718.70;106212;1268;22557;-57
2022/07/01 10:53:09;;;;;;;13.80;5.40;;;;;;;32.89;46.62;99717.92;106233;1268;22547;-57
2022/07/01 10:55:40;;;;;;;13.60;5.90;;;;;;;32.95;46.55;99719.25;106173;1268;24303;-56
2022/07/01 10:58:09;;;;;;;13.80;5.00;;;;;;;33.03;46.25;99716.32;106390;1268;25411;-59
2022/07/01 11:00:44;;;;;;;14.30;5.60;;;;;;;33.10;46.28;99720.70;106220;1267;24211;-58
2022/07/01 11:03:22;;;;;;;14.20;4.80;;;;;;;33.15;45.55;99728.46;106274;1268;22571;-57
2022/07/01 11:05:56;;;;;;;11.00;4.50;;;;;;;33.15;45.32;99744.23;106088;1268;22532;-59
2022/07/01 11:08:25;;;;;;;15.30;4.00;;;;;;;33.22;45.06;99747.89;105979;1268;25248;-58
2022/07/01 11:10:57;;;;;;;9.40;4.40;;;;;;;33.30;44.54;99755.21;106082;1268;22694;-58
2022/07/01 11:13:35;;;;;;;15.70;4.40;;;;;;;33.37;43.86;99755.85;106151;1268;22765;-57
2022/07/01 11:16:05;;;;;;;12.90;4.50;;;;;;;33.38;43.73;99753.88;106071;1268;25633;-59
2022/07/01 11:18:35;;;;;;;10.90;3.30;;;;;;;33.39;42.67;99750.46;106069;1268;22541;-56
2022/07/01 11:21:07;;;;;;;;;;;;;;;33.40;41.91;99739.66;106131;1268;25367;-56
2022/07/01 11:23:36;;;;;;;8.90;2.90;;;;;;;33.38;41.92;99732.77;106086;1268;25248;-58
2022/07/01 11:26:04;;;;;;;;;;;;;;;33.37;41.71;99723.45;106184;1268;24301;-57
2022/07/01 11:28:41;;;;;;;9.80;4.10;;;;;;;33.30;41.58;99723.13;106034;1268;24398;-58
2022/07/01 11:31:10;;;;;;;11.00;3.90;;;;;;;33.26;41.45;99725.92;107315;1259;23195;-66
2022/07/01 11:33:40;;;;;;;12.40;3.90;;;;;;;33.29;41.49;99722.79;107990;1268;24227;-67
2022/07/01 11:41:44;;;;;;;14.50;3.90;;;;;;;33.52;41.24;99707.66;107077;1270;23974;-66
2022/07/01 11:44:12;;;;;;;12.70;4.00;;;;;;;33.54;40.76;99704.23;106034;1271;24373;-66
2022/07/01 11:46:49;;;;;;;10.40;3.60;;;;;;;33.52;40.73;99701.15;109814;1270;22444;-67
2022/07/01 11:49:23;;;;;;;11.20;3.60;;;;;;;33.54;40.28;99689.22;108558;1269;22629;-66
2022/07/01 11:51:57;;;;;;;16.20;3.80;;;;;;;33.65;40.22;99697.96;105977;1270;22603;-67
2022/07/01 11:54:28;;;;;;;10.00;3.00;;;;;;;33.74;39.53;99701.56;106326;1271;25370;-67